Time;durP1;ratioP1;P1;durP2;ratioP2;P2;SDS_P1;SDS_P2;PMS_P1;PMS_P2;Temp;Humidity;BMP_temperature;BMP_pressure;BME280_temperature;BME280_humidity;BME280_pressure;Samples;Min_cycle;Max_cycle;Signal;HPM_P1;HPM_P2
2022/08/22 00:00:15;;;;;;;6.22;5.30;;;;;;;20.83;79.25;100254.13;1781792;79;27468;-73
2022/08/22 00:03:09;;;;;;;6.53;5.90;;;;;;;20.78;79.28;100256.27;1763958;80;25823;-74
2022/08/22 00:05:47;;;;;;;7.37;5.25;;;;;;;20.76;79.33;100259.80;1752648;80;25748;-74
2022/08/22 00:08:46;;;;;;;9.08;5.70;;;;;;;20.73;79.39;100252.14;1780543;79;25783;-74
2022/08/22 00:11:36;;;;;;;6.97;5.60;;;;;;;20.68;79.42;100251.56;1781025;79;25920;-74
2022/08/22 00:14:22;;;;;;;10.50;5.78;;;;;;;20.64;79.48;100264.05;1737120;81;28227;-73
2022/08/22 00:17:06;;;;;;;10.40;5.58;;;;;;;20.63;79.46;100269.77;1781834;79;25785;-73
2022/08/22 00:19:50;;;;;;;7.20;6.03;;;;;;;20.61;79.37;100270.03;1761008;81;25715;-74
2022/08/22 00:22:33;;;;;;;7.35;5.75;;;;;;;20.58;79.54;100271.08;1766749;80;25933;-74
2022/08/22 00:25:28;;;;;;;7.05;5.95;;;;;;;20.56;79.67;100270.52;1749008;80;25937;-73
2022/08/22 00:28:14;;;;;;;6.80;6.17;;;;;;;20.53;79.74;100269.12;1773975;80;27502;-73
2022/08/22 00:31:06;;;;;;;10.25;6.87;;;;;;;20.50;79.71;100277.00;1784038;79;26419;-74
2022/08/22 00:33:50;;;;;;;7.80;6.67;;;;;;;20.48;79.86;100277.80;1737647;80;25840;-74
2022/08/22 00:36:36;;;;;;;8.73;7.12;;;;;;;20.46;80.03;100269.08;1787443;80;25997;-74
2022/08/22 00:39:17;;;;;;;7.72;6.75;;;;;;;20.45;80.23;100270.14;1784162;79;25841;-74
2022/08/22 00:42:07;;;;;;;9.05;6.30;;;;;;;20.43;80.22;100267.69;1754552;80;28273;-74
2022/08/22 00:45:07;;;;;;;7.37;6.42;;;;;;;20.41;80.04;100271.21;1784690;79;25864;-74
2022/08/22 00:47:57;;;;;;;8.05;6.70;;;;;;;20.35;79.69;100268.17;1739608;80;25779;-74
2022/08/22 00:50:58;;;;;;;6.53;5.92;;;;;;;20.33;79.86;100266.78;1745218;79;26743;-74
2022/08/22 00:53:39;;;;;;;11.43;6.83;;;;;;;20.30;79.92;100269.47;1787219;79;26386;-73
2022/08/22 00:56:12;;;;;;;;;;;;;;;20.27;79.81;100267.28;1794468;79;27535;-74
2022/08/22 00:59:32;;;;;;;9.25;6.53;;;;;;;20.22;80.01;100271.84;1775439;80;25731;-74
2022/08/22 01:02:33;;;;;;;8.15;5.92;;;;;;;20.16;80.08;100273.67;1781965;79;25761;-73
2022/08/22 01:05:26;;;;;;;4.92;4.45;;;;;;;20.10;80.12;100270.63;1769024;80;26543;-74
2022/08/22 01:08:17;;;;;;;7.25;4.90;;;;;;;20.06;79.98;100272.75;1777146;80;25747;-74
2022/08/22 01:11:12;;;;;;;;;;;;;;;19.99;79.84;100277.03;1759411;80;27729;-74
2022/08/22 01:14:19;;;;;;;7.58;5.05;;;;;;;19.92;80.11;100274.52;1767204;80;26401;-74
2022/08/22 01:17:23;;;;;;;6.03;5.08;;;;;;;19.81;80.08;100276.00;1763125;80;25768;-74
2022/08/22 01:20:04;;;;;;;6.03;5.42;;;;;;;19.77;80.33;100278.41;1766683;80;26161;-74
2022/08/22 01:22:45;;;;;;;5.97;5.30;;;;;;;19.72;80.58;100281.06;1761044;80;25906;-74
2022/08/22 01:25:49;;;;;;;8.68;5.50;;;;;;;19.63;80.58;100289.94;1769876;80;27449;-74
2022/08/22 01:28:45;;;;;;;8.08;6.20;;;;;;;19.50;80.91;100290.31;1766823;80;26088;-74
2022/08/22 01:31:45;;;;;;;8.55;6.75;;;;;;;19.37;81.46;100292.86;1763915;80;25846;-74
2022/08/22 01:34:55;;;;;;;9.30;7.23;;;;;;;19.29;81.94;100296.52;1761095;80;26571;-74
2022/08/22 01:37:59;;;;;;;10.48;6.72;;;;;;;19.22;82.53;100295.34;1773396;80;25888;-74
2022/08/22 01:40:58;;;;;;;8.45;7.55;;;;;;;19.18;82.96;100301.78;1767191;80;27513;-73
2022/08/22 01:44:00;;;;;;;11.03;7.17;;;;;;;19.14;83.18;100290.31;1765537;79;25756;-74
2022/08/22 01:46:44;;;;;;;8.23;6.97;;;;;;;19.11;83.41;100289.47;1772559;79;26351;-74
2022/08/22 01:49:21;;;;;;;9.00;6.83;;;;;;;19.10;83.62;100294.06;1781851;79;26411;-74
2022/08/22 01:51:57;;;;;;;8.70;7.50;;;;;;;19.13;84.01;100294.11;1767542;79;25914;-74
2022/08/22 01:54:49;;;;;;;9.10;7.85;;;;;;;19.14;84.03;100293.02;1779140;79;27450;-74
2022/08/22 01:57:18;;;;;;;9.78;8.10;;;;;;;19.10;84.05;100286.45;1773972;79;25809;-74
2022/08/22 01:59:52;;;;;;;9.18;7.83;;;;;;;19.09;84.26;100293.80;1791925;79;25816;-74
2022/08/22 02:02:44;;;;;;;9.45;7.72;;;;;;;19.08;84.19;100286.71;1798271;79;25766;-74
2022/08/22 02:05:27;;;;;;;11.38;8.20;;;;;;;19.10;84.29;100289.17;1790573;79;26439;-73
2022/08/22 02:08:26;;;;;;;8.20;7.40;;;;;;;19.09;84.33;100288.37;1793163;79;27937;-73
2022/08/22 02:11:09;;;;;;;10.45;7.83;;;;;;;19.12;84.32;100291.09;1786724;79;25755;-74
2022/08/22 02:14:02;;;;;;;11.95;7.95;;;;;;;19.13;84.22;100295.47;1774222;79;25916;-73
2022/08/22 02:16:36;;;;;;;8.15;7.35;;;;;;;19.10;84.23;100295.95;1795148;79;25851;-73
2022/08/22 02:19:23;;;;;;;9.18;7.37;;;;;;;19.05;84.23;100304.05;1778292;80;25699;-73
2022/08/22 02:22:19;;;;;;;9.60;8.60;;;;;;;18.99;84.18;100299.62;1776609;80;27724;-73
2022/08/22 02:24:59;;;;;;;9.55;8.55;;;;;;;18.96;84.38;100301.45;1784145;79;25842;-73
2022/08/22 02:27:56;;;;;;;8.30;7.50;;;;;;;18.89;84.52;100292.66;1797988;79;26360;-73
2022/08/22 02:30:48;;;;;;;8.13;7.33;;;;;;;18.84;84.65;100294.75;1734935;79;25790;-74
2022/08/22 02:33:35;;;;;;;8.00;7.20;;;;;;;18.79;84.74;100300.65;1801058;79;25915;-73
2022/08/22 02:36:19;;;;;;;12.33;8.65;;;;;;;18.74;85.03;100297.84;1744930;79;27524;-73
2022/08/22 02:39:26;;;;;;;11.55;7.87;;;;;;;18.71;85.25;100295.64;1791885;79;25852;-73
2022/08/22 02:42:27;;;;;;;12.58;8.45;;;;;;;18.69;85.34;100288.28;1789888;79;25911;-73
2022/08/22 02:45:11;;;;;;;11.70;8.23;;;;;;;18.64;85.67;100292.27;1792687;78;26563;-73
2022/08/22 02:48:01;;;;;;;9.23;7.53;;;;;;;18.65;85.99;100289.85;1719371;79;25994;-73
2022/08/22 02:51:00;;;;;;;11.12;8.15;;;;;;;18.62;86.01;100298.47;1770042;79;27527;-73
2022/08/22 02:53:38;;;;;;;11.22;7.80;;;;;;;18.64;86.16;100294.98;1766848;80;25770;-73
2022/08/22 02:56:34;;;;;;;11.03;7.95;;;;;;;18.65;86.26;100293.36;1786252;79;25902;-73
2022/08/22 02:59:35;;;;;;;10.90;8.10;;;;;;;18.63;86.41;100290.08;1764195;80;25783;-73
2022/08/22 03:02:28;;;;;;;;;;;;;;;18.65;86.48;100295.28;1780396;79;25707;-73
2022/08/22 03:05:00;;;;;;;11.97;8.13;;;;;;;18.64;86.61;100300.41;1754413;80;27415;-73
2022/08/22 03:07:40;;;;;;;12.10;8.00;;;;;;;18.63;86.69;100300.09;1761032;79;25297;-73
2022/08/22 03:10:18;;;;;;;11.15;7.75;;;;;;;18.62;86.66;100301.19;1736041;81;25854;-73
2022/08/22 03:13:02;;;;;;;12.28;8.10;;;;;;;18.60;86.70;100300.61;1783200;79;25866;-73
2022/08/22 03:15:55;;;;;;;8.53;7.45;;;;;;;18.57;86.93;100299.73;1775578;80;25909;-74
2022/08/22 03:18:50;;;;;;;10.90;8.85;;;;;;;18.52;87.04;100305.09;1791539;79;27466;-73
2022/08/22 03:21:36;;;;;;;8.85;7.83;;;;;;;18.44;87.12;100305.77;1793534;79;25801;-73
2022/08/22 03:24:26;;;;;;;9.95;8.48;;;;;;;18.37;87.31;100307.78;1798960;79;26025;-73
2022/08/22 03:27:01;;;;;;;11.80;8.60;;;;;;;18.33;87.55;100316.12;1770340;79;25806;-73
2022/08/22 03:29:39;;;;;;;10.82;8.10;;;;;;;18.31;87.69;100314.71;1787900;79;25719;-73
2022/08/22 03:32:18;;;;;;;11.18;8.28;;;;;;;18.30;87.85;100315.27;1762732;79;27477;-73
2022/08/22 03:35:05;;;;;;;10.13;8.18;;;;;;;18.31;87.99;100316.06;1775859;79;25700;-73
2022/08/22 03:37:39;;;;;;;14.43;8.05;;;;;;;18.31;88.08;100314.19;1738122;80;25815;-73
2022/08/22 03:40:24;;;;;;;11.08;8.38;;;;;;;18.30;88.17;100315.80;1752721;80;26477;-73
2022/08/22 03:43:10;;;;;;;9.80;8.75;;;;;;;18.31;88.28;100320.13;1767675;79;25772;-73
2022/08/22 03:46:11;;;;;;;10.28;8.03;;;;;;;18.32;88.40;100317.20;1776873;79;27445;-73
2022/08/22 03:49:03;;;;;;;14.28;8.55;;;;;;;18.32;88.46;100319.08;1765216;79;25780;-73
2022/08/22 03:51:40;;;;;;;10.13;8.23;;;;;;;18.30;88.63;100320.69;1770288;79;25893;-73
2022/08/22 03:54:39;;;;;;;9.55;7.80;;;;;;;18.28;88.77;100321.44;1777245;79;26446;-73
2022/08/22 03:57:53;;;;;;;9.88;8.88;;;;;;;18.28;88.90;100322.00;1780711;79;25919;-73
2022/08/22 04:00:37;;;;;;;11.45;8.50;;;;;;;18.29;89.17;100325.81;1768695;79;27628;-73
2022/08/22 04:03:40;;;;;;;10.28;8.70;;;;;;;18.31;89.30;100333.16;1775582;79;25910;-73
2022/08/22 04:06:15;;;;;;;9.55;7.87;;;;;;;18.31;89.36;100339.11;1771283;80;25830;-73
2022/08/22 04:09:19;;;;;;;12.82;8.68;;;;;;;18.32;89.53;100338.06;1775467;79;25777;-73
2022/08/22 04:12:06;;;;;;;10.32;8.58;;;;;;;18.30;89.65;100336.96;1773595;79;25818;-73
2022/08/22 04:14:47;;;;;;;12.65;8.80;;;;;;;18.31;89.84;100337.76;1767668;79;27588;-73
2022/08/22 04:17:33;;;;;;;;;;;;;;;18.34;89.98;100337.28;1777421;80;25743;-72
2022/08/22 04:20:27;;;;;;;9.03;8.05;;;;;;;18.34;90.16;100343.54;1772609;80;25728;-73
2022/08/22 04:23:39;;;;;;;9.40;8.23;;;;;;;18.32;90.36;100342.13;1765372;79;26745;-73
2022/08/22 04:26:26;;;;;;;10.70;8.60;;;;;;;18.31;90.41;100343.18;1775801;80;25807;-73
2022/08/22 04:28:58;;;;;;;12.93;8.35;;;;;;;18.31;90.57;100350.79;1769029;79;27083;-73
2022/08/22 04:31:29;;;;;;;13.08;9.55;;;;;;;18.31;90.62;100350.79;1777683;80;25552;-73
2022/08/22 04:34:19;;;;;;;13.50;8.68;;;;;;;18.32;90.70;100352.98;1778980;79;26345;-73
2022/08/22 04:36:56;;;;;;;12.37;8.80;;;;;;;18.32;90.81;100347.03;1776254;79;25783;-73
2022/08/22 04:39:28;;;;;;;9.63;8.65;;;;;;;18.34;90.92;100353.55;1770765;79;25741;-73
2022/08/22 04:42:14;;;;;;;13.05;9.73;;;;;;;18.40;91.06;100352.58;1774238;79;28845;-73
2022/08/22 04:44:53;;;;;;;11.57;8.95;;;;;;;18.41;90.89;100356.95;1731022;79;25928;-73
2022/08/22 04:47:30;;;;;;;9.93;8.40;;;;;;;18.42;91.04;100354.51;1773096;79;26395;-73
2022/08/22 04:50:26;;;;;;;14.80;9.45;;;;;;;18.43;90.91;100355.61;1778654;79;26608;-72
2022/08/22 04:53:33;;;;;;;10.82;8.60;;;;;;;18.43;90.93;100358.88;1771143;79;25898;-73
2022/08/22 04:56:26;;;;;;;10.43;9.28;;;;;;;18.42;91.04;100369.42;1774037;80;27471;-73
2022/08/22 04:59:01;;;;;;;9.35;8.15;;;;;;;18.40;91.16;100366.14;1769082;79;25888;-73
2022/08/22 05:01:47;;;;;;;12.20;8.73;;;;;;;18.40;91.25;100372.39;1785359;79;25293;-73
2022/08/22 05:04:27;;;;;;;13.95;9.15;;;;;;;18.43;91.32;100371.09;1773222;79;26497;-73
2022/08/22 05:07:02;;;;;;;9.45;8.48;;;;;;;18.44;91.35;100369.52;1775976;79;25729;-73
2022/08/22 05:09:32;;;;;;;11.78;9.50;;;;;;;18.47;91.36;100374.98;1772644;79;28306;-73
2022/08/22 05:12:06;;;;;;;11.00;8.28;;;;;;;18.50;91.35;100370.41;1753461;81;25665;-73
2022/08/22 05:14:44;;;;;;;11.33;8.65;;;;;;;18.53;91.59;100370.46;1733156;80;25812;-73
2022/08/22 05:17:15;;;;;;;11.43;8.80;;;;;;;18.56;91.62;100373.53;1772464;79;25795;-73
2022/08/22 05:19:45;;;;;;;10.95;9.00;;;;;;;18.54;91.68;100376.20;1744296;80;25926;-73
2022/08/22 05:22:17;;;;;;;;;;;;;;;18.58;91.90;100377.34;1789641;79;27525;-73
2022/08/22 05:24:48;;;;;;;14.95;8.50;;;;;;;18.61;91.96;100374.95;1763446;80;25757;-73
2022/08/22 05:27:24;;;;;;;;;;;;;;;18.62;92.30;100372.55;1762906;80;26409;-73
2022/08/22 05:29:56;;;;;;;16.07;9.45;;;;;;;18.68;92.38;100379.70;1767133;79;25971;-73
2022/08/22 05:32:31;;;;;;;14.13;9.35;;;;;;;18.72;92.48;100381.38;1781288;79;25731;-73
2022/08/22 05:35:00;;;;;;;10.93;9.43;;;;;;;18.78;92.36;100393.44;1771155;79;28305;-73
2022/08/22 05:37:38;;;;;;;12.45;9.50;;;;;;;18.85;92.34;100394.64;1766285;79;25781;-73
2022/08/22 05:40:06;;;;;;;13.32;9.20;;;;;;;18.91;92.37;100395.02;1767697;79;25863;-73
2022/08/22 05:42:36;;;;;;;14.25;9.70;;;;;;;19.00;92.23;100388.11;1773272;79;25850;-73
2022/08/22 05:45:06;;;;;;;12.43;8.78;;;;;;;19.06;92.23;100391.19;1780247;79;25752;-73
2022/08/22 05:47:38;;;;;;;14.15;8.63;;;;;;;19.15;92.19;100396.50;1728613;81;28702;-73
2022/08/22 05:50:37;;;;;;;11.78;9.20;;;;;;;19.24;92.20;100401.81;1774090;80;25899;-73
2022/08/22 05:53:27;;;;;;;11.40;8.50;;;;;;;19.32;92.11;100395.95;1746619;81;25780;-73
2022/08/22 05:56:05;;;;;;;13.03;10.17;;;;;;;19.41;91.84;100397.75;1760775;81;26498;-73
2022/08/22 05:58:43;;;;;;;13.90;9.68;;;;;;;19.47;91.74;100396.22;1787224;80;25923;-72
2022/08/22 06:01:30;;;;;;;11.80;9.28;;;;;;;19.54;91.55;100394.16;1759935;80;27452;-73
2022/08/22 06:04:22;;;;;;;12.33;9.48;;;;;;;19.63;91.50;100391.27;1767560;79;26033;-73
2022/08/22 06:07:03;;;;;;;13.58;10.00;;;;;;;19.71;91.21;100391.39;1776523;79;25910;-73
2022/08/22 06:10:00;;;;;;;;;;;;;;;19.76;90.90;100387.39;1756127;80;25823;-73
2022/08/22 06:12:38;;;;;;;13.32;8.95;;;;;;;19.80;90.69;100385.25;1738970;80;26228;-73
2022/08/22 06:15:22;;;;;;;9.73;8.40;;;;;;;19.85;90.39;100391.30;1776861;80;27431;-73
2022/08/22 06:18:04;;;;;;;10.70;8.48;;;;;;;19.91;90.58;100391.11;1777574;79;26284;-73
2022/08/22 06:20:51;;;;;;;14.63;8.78;;;;;;;20.01;90.29;100393.15;1779361;80;25830;-74
2022/08/22 06:23:32;;;;;;;14.50;8.85;;;;;;;20.12;90.56;100390.02;1753373;80;25831;-74
2022/08/22 06:25:59;;;;;;;;;;;;;;;20.24;90.22;100398.88;1781370;79;25803;-74
2022/08/22 06:28:40;;;;;;;11.73;8.38;;;;;;;20.35;90.03;100396.56;1771450;78;28294;-74
2022/08/22 06:31:21;;;;;;;14.35;8.65;;;;;;;20.42;89.49;100399.91;1782574;79;25832;-74
2022/08/22 06:33:56;;;;;;;12.88;8.55;;;;;;;20.51;89.96;100399.72;1770524;79;25797;-73
2022/08/22 06:36:32;;;;;;;11.22;8.05;;;;;;;20.64;89.80;100400.13;1768869;79;26572;-74
2022/08/22 06:39:25;;;;;;;11.15;8.03;;;;;;;20.76;89.24;100404.08;1769686;79;25894;-74
2022/08/22 06:42:02;;;;;;;12.03;8.10;;;;;;;20.85;88.69;100399.77;1784022;79;27609;-74
2022/08/22 06:44:35;;;;;;;9.25;8.15;;;;;;;20.92;88.08;100402.28;1750066;80;25982;-74
2022/08/22 06:47:07;;;;;;;9.08;7.87;;;;;;;20.96;87.24;100412.41;1743043;80;25797;-74
2022/08/22 06:49:37;;;;;;;14.90;8.48;;;;;;;21.00;87.20;100410.01;1759469;80;25976;-74
2022/08/22 06:52:14;;;;;;;11.57;7.90;;;;;;;21.06;87.06;100406.27;1757641;79;25775;-74
2022/08/22 06:54:45;;;;;;;10.95;7.78;;;;;;;21.16;87.33;100409.06;1763427;79;27515;-74
2022/08/22 06:57:45;;;;;;;11.43;8.15;;;;;;;21.24;86.68;100404.49;1766098;79;26033;-74
2022/08/22 07:00:15;;;;;;;12.23;9.05;;;;;;;21.30;86.24;100407.53;1763311;79;25729;-73
2022/08/22 07:02:54;;;;;;;;;;;;;;;21.34;86.19;100405.95;1744225;80;25772;-74
2022/08/22 07:05:27;;;;;;;11.63;8.10;;;;;;;21.45;86.20;100419.91;1750903;80;26414;-73
2022/08/22 07:07:54;;;;;;;12.20;8.33;;;;;;;21.46;85.48;100410.13;1761925;79;27478;-73
2022/08/22 07:10:23;;;;;;;14.33;8.80;;;;;;;21.51;85.41;100414.79;1766618;79;26377;-73
2022/08/22 07:12:53;;;;;;;11.12;8.55;;;;;;;21.57;85.36;100412.38;1765546;79;25681;-73
2022/08/22 07:15:33;;;;;;;11.28;8.28;;;;;;;21.63;85.04;100419.48;1766364;79;25795;-73
2022/08/22 07:18:04;;;;;;;13.97;8.43;;;;;;;21.69;84.94;100416.23;1778792;79;25484;-73
2022/08/22 07:20:35;;;;;;;16.65;9.40;;;;;;;21.77;84.98;100418.48;1767759;79;27450;-73
2022/08/22 07:23:07;;;;;;;14.87;8.88;;;;;;;21.84;84.53;100420.45;1775016;79;25729;-73
2022/08/22 07:26:00;;;;;;;13.13;8.93;;;;;;;21.88;84.17;100419.66;1774415;79;25755;-74
2022/08/22 07:28:47;;;;;;;16.23;9.33;;;;;;;21.93;84.48;100415.60;1769240;79;25848;-74
2022/08/22 07:31:37;;;;;;;14.30;8.88;;;;;;;22.03;84.47;100417.00;1783535;79;25801;-74
2022/08/22 07:34:31;;;;;;;10.58;8.58;;;;;;;22.08;83.42;100419.77;1771069;79;27468;-74
2022/08/22 07:37:25;;;;;;;12.30;7.95;;;;;;;22.15;83.59;100414.86;1769091;79;25834;-74
2022/08/22 07:40:04;;;;;;;12.82;7.83;;;;;;;22.25;83.45;100420.92;1779091;79;26459;-74
2022/08/22 07:42:52;;;;;;;13.32;9.78;;;;;;;22.31;82.71;100415.75;1741311;80;26603;-73
2022/08/22 07:45:54;;;;;;;9.75;8.43;;;;;;;22.39;83.59;100415.79;1781077;79;26378;-74
2022/08/22 07:48:35;;;;;;;15.13;9.20;;;;;;;22.50;82.97;100423.72;1792695;79;27422;-73
2022/08/22 07:51:16;;;;;;;17.67;9.05;;;;;;;22.58;83.05;100420.45;1775886;79;25929;-74
2022/08/22 07:53:48;;;;;;;17.20;9.55;;;;;;;22.67;82.67;100424.34;1778185;79;25897;-73
2022/08/22 07:56:22;;;;;;;12.50;10.32;;;;;;;22.70;81.89;100431.17;1781581;79;26561;-73
2022/08/22 07:58:55;;;;;;;17.40;10.50;;;;;;;22.74;82.38;100432.27;1787564;79;25897;-74
2022/08/22 08:01:24;;;;;;;23.02;10.72;;;;;;;22.82;82.83;100435.28;1785142;79;27527;-74
2022/08/22 08:04:01;;;;;;;16.20;10.08;;;;;;;22.88;81.84;100436.13;1762840;79;25785;-74
2022/08/22 08:06:30;;;;;;;15.08;9.85;;;;;;;22.93;81.47;100429.29;1747242;81;25878;-74
2022/08/22 08:08:57;;;;;;;16.17;9.33;;;;;;;22.98;81.23;100426.58;1776147;79;26181;-74
2022/08/22 08:11:27;;;;;;;19.30;10.15;;;;;;;22.95;80.68;100427.93;1772870;80;25891;-73
2022/08/22 08:14:04;;;;;;;17.57;11.18;;;;;;;22.92;80.72;100432.56;1786487;79;27438;-74
2022/08/22 08:16:41;;;;;;;14.18;11.22;;;;;;;23.00;81.65;100421.11;1782460;79;25801;-73
2022/08/22 08:19:09;;;;;;;19.15;12.33;;;;;;;23.11;81.31;100422.48;1758029;79;25769;-74
2022/08/22 08:21:41;;;;;;;16.27;11.00;;;;;;;23.10;80.58;100416.72;1750781;80;25766;-73
2022/08/22 08:24:13;;;;;;;17.90;11.68;;;;;;;23.11;81.28;100428.77;1761644;80;25828;-74
2022/08/22 08:28:32;;;;;;;19.35;11.22;;;;;;;23.14;81.02;100421.38;1781884;79;27482;-73
2022/08/22 08:29:17;;;;;;;19.62;10.55;;;;;;;23.21;81.64;100425.20;1772595;79;25945;-74
2022/08/22 08:31:44;;;;;;;15.30;11.80;;;;;;;23.24;80.69;100426.86;1759329;80;25765;-74
2022/08/22 08:34:15;;;;;;;19.65;12.85;;;;;;;23.30;81.01;100425.75;1767890;80;25981;-74
2022/08/22 08:36:58;;;;;;;19.27;11.95;;;;;;;23.40;81.54;100424.41;1774101;79;25738;-74
2022/08/22 08:39:35;;;;;;;23.50;14.23;;;;;;;23.55;81.63;100426.30;1751239;81;27500;-74
2022/08/22 08:45:50;;;;;;;17.32;11.18;;;;;;;23.61;80.48;100423.81;1716532;81;25745;-74
2022/08/22 08:48:54;;;;;;;22.52;11.25;;;;;;;23.69;80.12;100419.17;1759286;79;26660;-74
2022/08/22 08:51:44;;;;;;;21.68;10.78;;;;;;;23.78;80.94;100423.78;1767159;79;25850;-74
2022/08/22 08:54:33;;;;;;;16.80;10.45;;;;;;;23.84;79.05;100419.14;1759610;80;27457;-74
2022/08/22 08:57:19;;;;;;;15.50;11.08;;;;;;;23.79;79.00;100430.08;1781674;79;25794;-74
2022/08/22 09:00:11;;;;;;;16.00;10.00;;;;;;;23.71;78.17;100424.64;1751796;80;25867;-74
2022/08/22 09:02:59;;;;;;;17.75;10.35;;;;;;;23.71;78.02;100421.91;1774481;80;25840;-74
2022/08/22 09:05:43;;;;;;;15.50;10.23;;;;;;;23.68;78.29;100426.55;1774492;80;25691;-74
2022/08/22 09:08:41;;;;;;;20.60;9.75;;;;;;;23.68;78.69;100424.36;1740461;80;27520;-74
2022/08/22 09:11:32;;;;;;;18.25;10.25;;;;;;;23.77;79.11;100419.97;1753228;80;25919;-74
2022/08/22 09:14:17;;;;;;;19.23;10.13;;;;;;;23.89;78.89;100423.20;1788827;80;25700;-74
2022/08/22 09:17:11;;;;;;;13.48;9.48;;;;;;;23.96;78.59;100422.37;1753916;80;26534;-74
2022/08/22 09:19:51;;;;;;;15.08;9.50;;;;;;;23.99;77.40;100421.00;1715242;80;26118;-74
2022/08/22 09:23:06;;;;;;;20.72;9.83;;;;;;;24.09;76.96;100419.61;1758922;80;28263;-74
2022/08/22 09:25:44;;;;;;;16.30;9.20;;;;;;;24.18;76.74;100415.20;1769196;79;25755;-74
2022/08/22 09:28:32;;;;;;;15.15;9.38;;;;;;;24.25;76.91;100422.58;1760271;79;36202;-74
2022/08/22 09:31:44;;;;;;;14.90;8.35;;;;;;;24.24;75.68;100420.92;1762785;81;26728;-74
2022/08/22 09:34:24;;;;;;;12.95;7.92;;;;;;;24.27;75.39;100422.53;1757483;81;25765;-74
2022/08/22 09:37:06;;;;;;;18.85;9.05;;;;;;;24.37;75.54;100419.77;1755571;81;27454;-75
2022/08/22 09:39:54;;;;;;;11.08;8.40;;;;;;;24.47;75.83;100427.09;1755460;81;25688;-75
2022/08/22 09:42:38;;;;;;;16.25;8.48;;;;;;;24.44;74.75;100421.62;1763829;78;25819;-75
2022/08/22 09:45:32;;;;;;;15.88;8.83;;;;;;;24.45;74.29;100422.45;1772099;79;26637;-74
2022/08/22 09:48:10;;;;;;;15.78;8.50;;;;;;;24.53;74.29;100414.46;1772115;79;26354;-74
2022/08/22 09:51:02;;;;;;;13.62;8.20;;;;;;;24.61;74.33;100414.98;1781994;78;27480;-74
2022/08/22 09:53:34;;;;;;;24.18;9.68;;;;;;;24.71;74.79;100412.16;1776309;79;25781;-74
2022/08/22 09:56:15;;;;;;;14.03;8.35;;;;;;;24.85;74.57;100406.36;1771043;79;25799;-74
2022/08/22 09:59:08;;;;;;;13.72;8.38;;;;;;;24.93;73.44;100407.94;1780714;80;26371;-74
2022/08/22 10:01:59;;;;;;;17.30;8.10;;;;;;;24.97;72.83;100400.78;1770235;80;25863;-74
2022/08/22 10:04:46;;;;;;;14.05;7.55;;;;;;;25.09;74.23;100405.33;1737373;81;28196;-74
2022/08/22 10:07:50;;;;;;;12.23;7.60;;;;;;;25.17;72.81;100413.51;1752412;80;26454;-74
2022/08/22 10:10:37;;;;;;;16.50;8.05;;;;;;;25.13;72.39;100409.13;1781283;79;25267;-74
2022/08/22 10:13:32;;;;;;;15.05;7.85;;;;;;;25.02;72.11;100412.27;1734095;81;25781;-74
2022/08/22 10:16:22;;;;;;;18.85;7.67;;;;;;;24.85;72.00;100409.90;1768828;80;25754;-74
2022/08/22 10:19:03;;;;;;;24.55;7.05;;;;;;;24.83;72.56;100411.31;1783980;79;27643;-74
2022/08/22 10:21:47;;;;;;;13.53;8.05;;;;;;;24.89;72.96;100410.16;1738820;81;25805;-74
2022/08/22 10:24:24;;;;;;;15.93;8.73;;;;;;;24.95;73.30;100402.17;1756633;80;25708;-74
2022/08/22 10:26:59;;;;;;;10.45;7.75;;;;;;;25.07;72.74;100408.09;1748290;81;25771;-74
2022/08/22 10:29:49;;;;;;;16.97;7.12;;;;;;;25.07;72.73;100406.72;1776118;80;26314;-74
2022/08/22 10:32:53;;;;;;;20.10;7.58;;;;;;;25.12;73.07;100408.88;1773645;80;27455;-74
2022/08/22 10:35:31;;;;;;;13.10;7.80;;;;;;;25.12;71.62;100401.20;1776427;80;25795;-75
2022/08/22 10:38:09;;;;;;;13.10;7.62;;;;;;;25.09;71.20;100400.39;1780009;79;26390;-75
2022/08/22 10:41:05;;;;;;;13.58;7.08;;;;;;;25.09;71.55;100407.25;1741135;81;26566;-74
2022/08/22 10:43:48;;;;;;;12.43;7.30;;;;;;;25.06;71.64;100405.09;1771634;80;25962;-74
2022/08/22 10:46:26;;;;;;;16.67;7.85;;;;;;;24.99;71.85;100402.69;1741031;81;27626;-74
2022/08/22 10:49:03;;;;;;;12.28;7.83;;;;;;;24.92;71.38;100404.09;1775464;79;26003;-74
2022/08/22 10:51:35;;;;;;;14.50;8.15;;;;;;;24.90;71.78;100403.56;1744316;81;25794;-74
2022/08/22 10:54:16;;;;;;;14.07;8.03;;;;;;;24.92;72.15;100405.47;1777639;79;25902;-74
2022/08/22 10:56:57;;;;;;;18.07;7.97;;;;;;;24.95;72.21;100402.99;1788060;79;25775;-74
2022/08/22 11:00:04;;;;;;;11.57;7.42;;;;;;;24.96;71.84;100407.90;1767785;80;27514;-74
2022/08/22 11:02:49;;;;;;;17.07;8.03;;;;;;;24.94;71.69;100406.00;1780465;79;25778;-74
2022/08/22 11:05:27;;;;;;;19.32;7.30;;;;;;;24.92;72.20;100406.84;1774248;80;25849;-74
2022/08/22 11:08:05;;;;;;;17.50;7.30;;;;;;;24.92;72.28;100406.84;1775005;78;25849;-75
2022/08/22 11:11:05;;;;;;;15.70;7.47;;;;;;;24.95;72.59;100408.47;1746693;81;25718;-74
2022/08/22 11:14:10;;;;;;;12.73;7.30;;;;;;;24.95;72.26;100411.21;1676597;80;28281;-75
2022/08/22 11:17:13;;;;;;;13.90;7.87;;;;;;;24.95;72.33;100409.84;1744410;81;26270;-74
2022/08/22 11:20:21;;;;;;;13.75;7.15;;;;;;;24.96;72.43;100412.83;1744690;81;25887;-74
2022/08/22 11:22:56;;;;;;;14.20;7.83;;;;;;;24.99;72.86;100408.71;1746241;81;25742;-74
2022/08/22 11:25:43;;;;;;;9.83;7.35;;;;;;;25.03;72.98;100411.14;1783202;80;25794;-74
2022/08/22 11:28:29;;;;;;;12.20;7.58;;;;;;;25.06;72.97;100411.38;1711316;81;28286;-74
2022/08/22 11:31:04;;;;;;;11.95;7.60;;;;;;;25.06;72.54;100414.69;1751497;81;25793;-73
2022/08/22 11:33:41;;;;;;;18.57;7.55;;;;;;;25.07;72.62;100417.14;1758935;81;25825;-74
2022/08/22 11:36:16;;;;;;;12.28;7.17;;;;;;;25.09;72.73;100416.30;1752356;81;25856;-73
2022/08/22 11:39:23;;;;;;;9.05;6.97;;;;;;;25.10;72.46;100417.13;1777608;78;25757;-74
2022/08/22 11:42:22;;;;;;;16.48;7.90;;;;;;;25.12;72.54;100415.73;1747054;81;27475;-74
2022/08/22 11:44:59;;;;;;;16.02;8.43;;;;;;;25.15;73.12;100415.69;1743557;81;26028;-74
2022/08/22 11:47:29;;;;;;;19.12;8.58;;;;;;;25.18;73.23;100411.02;1781463;79;25800;-73
2022/08/22 11:50:05;;;;;;;;;;;;;;;25.17;73.15;100411.56;1756541;80;25970;-73
2022/08/22 11:52:56;;;;;;;8.60;6.87;;;;;;;25.15;72.51;100414.31;1757668;81;25847;-73
2022/08/22 11:55:46;;;;;;;14.13;8.20;;;;;;;25.11;72.54;100414.08;1734456;81;28397;-73
2022/08/22 11:58:27;;;;;;;10.35;7.37;;;;;;;25.08;72.89;100417.42;1758156;81;25822;-73
2022/08/22 12:01:04;;;;;;;16.50;8.20;;;;;;;25.04;72.99;100423.18;1761180;80;25879;-73
2022/08/22 12:03:39;;;;;;;17.70;6.75;;;;;;;24.99;72.84;100421.05;1746899;80;26575;-73
2022/08/22 12:06:11;;;;;;;11.97;7.62;;;;;;;24.97;73.19;100419.14;1758550;81;25710;-73
2022/08/22 12:09:06;;;;;;;16.55;7.83;;;;;;;24.94;73.13;100423.27;1689892;80;27600;-73
2022/08/22 12:11:56;;;;;;;15.35;7.22;;;;;;;24.93;73.31;100417.53;1753737;80;26434;-74
2022/08/22 12:15:01;;;;;;;15.45;6.87;;;;;;;24.94;73.69;100421.07;1779802;79;25744;-74
2022/08/22 12:17:51;;;;;;;11.85;7.25;;;;;;;24.93;73.36;100420.82;1749545;80;25908;-74
2022/08/22 12:20:44;;;;;;;16.42;7.33;;;;;;;24.93;73.71;100427.67;1769634;79;25999;-74
2022/08/22 12:23:44;;;;;;;12.35;7.08;;;;;;;24.97;74.24;100423.25;1760719;80;26854;-74
2022/08/22 12:26:16;;;;;;;15.53;7.85;;;;;;;25.01;74.43;100424.31;1777937;79;25793;-74
2022/08/22 12:29:18;;;;;;;14.28;7.25;;;;;;;25.02;73.62;100415.00;1773814;79;25804;-74
2022/08/22 12:32:32;;;;;;;9.58;6.25;;;;;;;25.03;73.52;100421.56;1690085;83;26326;-74
2022/08/22 12:35:16;;;;;;;12.60;6.58;;;;;;;25.07;73.24;100420.42;1771350;79;25778;-74
2022/08/22 12:37:57;;;;;;;13.03;7.75;;;;;;;25.13;73.00;100415.16;1750886;81;27454;-74
2022/08/22 12:40:36;;;;;;;;;;;;;;;25.17;72.82;100417.05;1759905;80;26368;-74
2022/08/22 12:43:35;;;;;;;12.18;6.05;;;;;;;25.20;72.91;100420.59;1723078;81;26016;-74
2022/08/22 12:46:38;;;;;;;17.23;6.85;;;;;;;25.22;72.77;100416.19;1763803;79;25745;-74